sensor_id;sensor_type;location;lat;lon;timestamp;P1;durP1;ratioP1;P2;durP2;ratioP2
18716;SDS011;9487;50.892;6.906;2023-03-03T00:00:05;40.77;;;28.70;;
18716;SDS011;9487;50.892;6.906;2023-03-03T00:02:32;40.67;;;28.27;;
18716;SDS011;9487;50.892;6.906;2023-03-03T00:04:59;39.40;;;27.57;;
18716;SDS011;9487;50.892;6.906;2023-03-03T00:07:26;43.47;;;29.00;;
18716;SDS011;9487;50.892;6.906;2023-03-03T00:09:53;43.33;;;30.73;;
18716;SDS011;9487;50.892;6.906;2023-03-03T00:12:22;46.17;;;29.93;;
18716;SDS011;9487;50.892;6.906;2023-03-03T00:14:50;45.13;;;29.87;;
18716;SDS011;9487;50.892;6.906;2023-03-03T00:17:19;46.23;;;30.80;;
18716;SDS011;9487;50.892;6.906;2023-03-03T00:19:48;43.63;;;31.30;;
18716;SDS011;9487;50.892;6.906;2023-03-03T00:22:18;47.33;;;31.67;;
18716;SDS011;9487;50.892;6.906;2023-03-03T00:24:54;45.10;;;30.93;;
18716;SDS011;9487;50.892;6.906;2023-03-03T00:27:25;48.23;;;31.67;;
18716;SDS011;9487;50.892;6.906;2023-03-03T00:29:54;52.37;;;32.70;;
18716;SDS011;9487;50.892;6.906;2023-03-03T00:32:23;47.70;;;32.53;;
18716;SDS011;9487;50.892;6.906;2023-03-03T00:34:53;47.77;;;31.37;;
18716;SDS011;9487;50.892;6.906;2023-03-03T00:37:31;47.63;;;31.40;;
18716;SDS011;9487;50.892;6.906;2023-03-03T00:40:20;49.17;;;31.80;;
18716;SDS011;9487;50.892;6.906;2023-03-03T00:42:51;47.13;;;31.87;;
18716;SDS011;9487;50.892;6.906;2023-03-03T00:45:22;50.43;;;32.97;;
18716;SDS011;9487;50.892;6.906;2023-03-03T00:47:52;47.47;;;32.83;;
18716;SDS011;9487;50.892;6.906;2023-03-03T00:50:24;49.27;;;33.47;;
18716;SDS011;9487;50.892;6.906;2023-03-03T00:52:58;50.00;;;32.53;;
18716;SDS011;9487;50.892;6.906;2023-03-03T00:55:31;49.87;;;32.23;;
18716;SDS011;9487;50.892;6.906;2023-03-03T00:58:00;47.40;;;30.93;;
18716;SDS011;9487;50.892;6.906;2023-03-03T01:00:28;50.77;;;32.77;;
18716;SDS011;9487;50.892;6.906;2023-03-03T01:02:55;49.90;;;33.10;;
18716;SDS011;9487;50.892;6.906;2023-03-03T01:05:22;53.63;;;33.73;;
18716;SDS011;9487;50.892;6.906;2023-03-03T01:07:49;48.77;;;32.30;;
18716;SDS011;9487;50.892;6.906;2023-03-03T01:10:16;47.83;;;31.43;;
18716;SDS011;9487;50.892;6.906;2023-03-03T01:12:43;44.27;;;30.27;;
18716;SDS011;9487;50.892;6.906;2023-03-03T01:15:11;43.40;;;29.87;;
18716;SDS011;9487;50.892;6.906;2023-03-03T01:17:39;47.67;;;33.17;;
18716;SDS011;9487;50.892;6.906;2023-03-03T01:20:07;49.77;;;32.57;;
18716;SDS011;9487;50.892;6.906;2023-03-03T01:22:35;55.10;;;36.27;;
18716;SDS011;9487;50.892;6.906;2023-03-03T01:25:02;53.40;;;34.77;;
18716;SDS011;9487;50.892;6.906;2023-03-03T01:27:29;58.63;;;36.97;;
18716;SDS011;9487;50.892;6.906;2023-03-03T01:29:56;55.60;;;35.83;;
18716;SDS011;9487;50.892;6.906;2023-03-03T01:32:24;57.67;;;37.10;;
18716;SDS011;9487;50.892;6.906;2023-03-03T01:34:52;55.70;;;35.37;;
18716;SDS011;9487;50.892;6.906;2023-03-03T01:37:19;58.17;;;36.63;;
18716;SDS011;9487;50.892;6.906;2023-03-03T01:39:47;63.70;;;39.80;;
18716;SDS011;9487;50.892;6.906;2023-03-03T01:42:15;57.70;;;37.10;;
18716;SDS011;9487;50.892;6.906;2023-03-03T01:44:41;56.40;;;36.30;;
18716;SDS011;9487;50.892;6.906;2023-03-03T01:47:09;62.03;;;38.90;;
18716;SDS011;9487;50.892;6.906;2023-03-03T01:49:39;65.70;;;38.73;;
18716;SDS011;9487;50.892;6.906;2023-03-03T01:52:12;60.70;;;38.50;;
18716;SDS011;9487;50.892;6.906;2023-03-03T01:54:45;60.53;;;38.30;;
18716;SDS011;9487;50.892;6.906;2023-03-03T01:57:17;65.03;;;40.27;;
18716;SDS011;9487;50.892;6.906;2023-03-03T01:59:48;66.03;;;40.20;;
18716;SDS011;9487;50.892;6.906;2023-03-03T02:02:17;65.73;;;40.73;;
18716;SDS011;9487;50.892;6.906;2023-03-03T02:04:45;67.63;;;41.27;;
18716;SDS011;9487;50.892;6.906;2023-03-03T02:07:12;65.40;;;41.03;;
18716;SDS011;9487;50.892;6.906;2023-03-03T02:09:44;67.87;;;42.63;;
18716;SDS011;9487;50.892;6.906;2023-03-03T02:12:17;68.17;;;40.37;;
18716;SDS011;9487;50.892;6.906;2023-03-03T02:14:47;65.40;;;40.90;;
18716;SDS011;9487;50.892;6.906;2023-03-03T02:17:14;67.63;;;40.70;;
18716;SDS011;9487;50.892;6.906;2023-03-03T02:19:42;69.73;;;40.37;;
18716;SDS011;9487;50.892;6.906;2023-03-03T02:22:19;68.77;;;41.73;;
18716;SDS011;9487;50.892;6.906;2023-03-03T02:24:49;68.93;;;41.73;;
18716;SDS011;9487;50.892;6.906;2023-03-03T02:27:21;72.87;;;40.60;;
18716;SDS011;9487;50.892;6.906;2023-03-03T02:29:48;68.43;;;40.63;;
18716;SDS011;9487;50.892;6.906;2023-03-03T02:32:16;69.87;;;41.23;;
18716;SDS011;9487;50.892;6.906;2023-03-03T02:34:44;72.87;;;41.13;;
18716;SDS011;9487;50.892;6.906;2023-03-03T02:37:12;69.83;;;41.57;;
18716;SDS011;9487;50.892;6.906;2023-03-03T02:39:39;75.47;;;42.83;;
18716;SDS011;9487;50.892;6.906;2023-03-03T02:42:07;70.97;;;43.17;;
18716;SDS011;9487;50.892;6.906;2023-03-03T02:44:40;68.10;;;41.57;;
18716;SDS011;9487;50.892;6.906;2023-03-03T02:47:07;75.73;;;43.20;;
18716;SDS011;9487;50.892;6.906;2023-03-03T02:49:34;71.27;;;42.03;;
18716;SDS011;9487;50.892;6.906;2023-03-03T02:52:02;73.83;;;42.43;;
18716;SDS011;9487;50.892;6.906;2023-03-03T02:54:31;74.03;;;42.77;;
18716;SDS011;9487;50.892;6.906;2023-03-03T02:56:58;68.30;;;40.50;;
18716;SDS011;9487;50.892;6.906;2023-03-03T02:59:25;71.53;;;42.23;;
18716;SDS011;9487;50.892;6.906;2023-03-03T03:01:54;73.87;;;42.27;;
18716;SDS011;9487;50.892;6.906;2023-03-03T03:04:22;76.23;;;42.00;;
18716;SDS011;9487;50.892;6.906;2023-03-03T03:06:50;71.90;;;40.53;;
18716;SDS011;9487;50.892;6.906;2023-03-03T03:09:18;75.60;;;43.13;;
18716;SDS011;9487;50.892;6.906;2023-03-03T03:11:45;80.47;;;43.70;;
18716;SDS011;9487;50.892;6.906;2023-03-03T03:14:12;78.03;;;43.00;;
18716;SDS011;9487;50.892;6.906;2023-03-03T03:16:40;75.37;;;43.87;;
18716;SDS011;9487;50.892;6.906;2023-03-03T03:19:08;73.83;;;41.87;;
18716;SDS011;9487;50.892;6.906;2023-03-03T03:21:35;75.50;;;42.40;;
18716;SDS011;9487;50.892;6.906;2023-03-03T03:24:02;74.13;;;43.03;;
18716;SDS011;9487;50.892;6.906;2023-03-03T03:26:29;72.93;;;41.23;;
18716;SDS011;9487;50.892;6.906;2023-03-03T03:28:56;74.27;;;40.80;;
18716;SDS011;9487;50.892;6.906;2023-03-03T03:31:22;81.27;;;43.97;;
18716;SDS011;9487;50.892;6.906;2023-03-03T03:33:49;79.67;;;43.87;;
18716;SDS011;9487;50.892;6.906;2023-03-03T03:36:18;83.07;;;45.07;;
18716;SDS011;9487;50.892;6.906;2023-03-03T03:38:45;81.50;;;43.40;;
18716;SDS011;9487;50.892;6.906;2023-03-03T03:41:12;73.20;;;43.00;;
18716;SDS011;9487;50.892;6.906;2023-03-03T03:43:39;78.77;;;43.40;;
18716;SDS011;9487;50.892;6.906;2023-03-03T03:46:06;81.20;;;44.20;;
18716;SDS011;9487;50.892;6.906;2023-03-03T03:48:34;79.93;;;42.93;;
18716;SDS011;9487;50.892;6.906;2023-03-03T03:51:00;73.27;;;41.83;;
18716;SDS011;9487;50.892;6.906;2023-03-03T03:53:29;82.23;;;43.20;;
18716;SDS011;9487;50.892;6.906;2023-03-03T03:55:55;83.50;;;45.53;;
18716;SDS011;9487;50.892;6.906;2023-03-03T03:58:22;79.40;;;43.67;;
18716;SDS011;9487;50.892;6.906;2023-03-03T04:00:49;77.60;;;43.77;;
18716;SDS011;9487;50.892;6.906;2023-03-03T04:03:16;81.60;;;42.67;;
18716;SDS011;9487;50.892;6.906;2023-03-03T04:05:43;81.80;;;44.10;;
18716;SDS011;9487;50.892;6.906;2023-03-03T04:08:09;76.90;;;42.73;;
18716;SDS011;9487;50.892;6.906;2023-03-03T04:10:38;73.63;;;40.40;;
18716;SDS011;9487;50.892;6.906;2023-03-03T04:13:04;75.93;;;39.77;;
18716;SDS011;9487;50.892;6.906;2023-03-03T04:15:31;70.23;;;38.87;;
18716;SDS011;9487;50.892;6.906;2023-03-03T04:17:58;74.23;;;42.27;;
18716;SDS011;9487;50.892;6.906;2023-03-03T04:20:25;72.30;;;39.90;;
18716;SDS011;9487;50.892;6.906;2023-03-03T04:22:52;70.57;;;40.47;;
18716;SDS011;9487;50.892;6.906;2023-03-03T04:25:19;74.77;;;40.07;;
18716;SDS011;9487;50.892;6.906;2023-03-03T04:27:47;68.47;;;40.37;;
18716;SDS011;9487;50.892;6.906;2023-03-03T04:30:15;69.63;;;39.23;;
18716;SDS011;9487;50.892;6.906;2023-03-03T04:32:42;65.13;;;37.27;;
18716;SDS011;9487;50.892;6.906;2023-03-03T04:35:09;68.27;;;39.47;;
18716;SDS011;9487;50.892;6.906;2023-03-03T04:37:37;68.70;;;38.53;;
18716;SDS011;9487;50.892;6.906;2023-03-03T04:40:05;65.50;;;38.33;;
18716;SDS011;9487;50.892;6.906;2023-03-03T04:42:33;65.53;;;37.80;;
18716;SDS011;9487;50.892;6.906;2023-03-03T04:45:01;73.43;;;39.50;;
18716;SDS011;9487;50.892;6.906;2023-03-03T04:47:29;72.90;;;38.30;;
18716;SDS011;9487;50.892;6.906;2023-03-03T04:49:57;69.77;;;39.03;;
18716;SDS011;9487;50.892;6.906;2023-03-03T04:52:24;65.43;;;37.03;;
18716;SDS011;9487;50.892;6.906;2023-03-03T04:54:51;68.80;;;38.43;;
18716;SDS011;9487;50.892;6.906;2023-03-03T04:57:18;72.27;;;39.73;;
18716;SDS011;9487;50.892;6.906;2023-03-03T04:59:45;71.50;;;40.23;;
18716;SDS011;9487;50.892;6.906;2023-03-03T05:02:13;67.20;;;37.60;;
18716;SDS011;9487;50.892;6.906;2023-03-03T05:04:40;62.23;;;36.03;;
18716;SDS011;9487;50.892;6.906;2023-03-03T05:07:06;62.40;;;35.53;;
18716;SDS011;9487;50.892;6.906;2023-03-03T05:09:33;61.13;;;34.60;;
18716;SDS011;9487;50.892;6.906;2023-03-03T05:12:00;65.17;;;36.37;;
18716;SDS011;9487;50.892;6.906;2023-03-03T05:14:27;70.13;;;37.67;;
18716;SDS011;9487;50.892;6.906;2023-03-03T05:16:55;66.50;;;37.67;;
18716;SDS011;9487;50.892;6.906;2023-03-03T05:19:23;67.33;;;36.93;;
18716;SDS011;9487;50.892;6.906;2023-03-03T05:21:50;66.80;;;36.90;;
18716;SDS011;9487;50.892;6.906;2023-03-03T05:24:17;63.37;;;36.00;;
18716;SDS011;9487;50.892;6.906;2023-03-03T05:26:44;64.13;;;35.37;;
18716;SDS011;9487;50.892;6.906;2023-03-03T05:29:10;60.80;;;35.10;;
18716;SDS011;9487;50.892;6.906;2023-03-03T05:31:37;58.47;;;34.60;;
18716;SDS011;9487;50.892;6.906;2023-03-03T05:34:04;56.90;;;33.63;;
18716;SDS011;9487;50.892;6.906;2023-03-03T05:36:32;65.10;;;36.07;;
18716;SDS011;9487;50.892;6.906;2023-03-03T05:38:59;57.10;;;33.63;;
18716;SDS011;9487;50.892;6.906;2023-03-03T05:41:26;57.80;;;33.37;;
18716;SDS011;9487;50.892;6.906;2023-03-03T05:43:52;58.50;;;32.77;;
18716;SDS011;9487;50.892;6.906;2023-03-03T05:46:19;61.83;;;33.80;;
18716;SDS011;9487;50.892;6.906;2023-03-03T05:48:46;58.70;;;33.03;;
18716;SDS011;9487;50.892;6.906;2023-03-03T05:51:13;63.57;;;34.27;;
18716;SDS011;9487;50.892;6.906;2023-03-03T05:53:41;67.87;;;38.13;;
18716;SDS011;9487;50.892;6.906;2023-03-03T05:56:08;75.83;;;39.43;;
18716;SDS011;9487;50.892;6.906;2023-03-03T05:58:34;68.13;;;38.97;;
18716;SDS011;9487;50.892;6.906;2023-03-03T06:01:01;65.17;;;35.80;;
18716;SDS011;9487;50.892;6.906;2023-03-03T06:03:28;59.57;;;34.90;;
18716;SDS011;9487;50.892;6.906;2023-03-03T06:05:55;65.10;;;36.53;;
18716;SDS011;9487;50.892;6.906;2023-03-03T06:08:22;61.17;;;36.93;;
18716;SDS011;9487;50.892;6.906;2023-03-03T06:10:50;62.60;;;37.30;;
18716;SDS011;9487;50.892;6.906;2023-03-03T06:13:17;60.53;;;35.33;;
18716;SDS011;9487;50.892;6.906;2023-03-03T06:15:44;58.23;;;35.10;;
18716;SDS011;9487;50.892;6.906;2023-03-03T06:18:11;59.30;;;35.10;;
18716;SDS011;9487;50.892;6.906;2023-03-03T06:20:38;56.83;;;33.23;;
18716;SDS011;9487;50.892;6.906;2023-03-03T06:23:04;56.73;;;33.50;;
18716;SDS011;9487;50.892;6.906;2023-03-03T06:25:31;57.53;;;33.23;;
18716;SDS011;9487;50.892;6.906;2023-03-03T06:28:01;55.93;;;33.23;;
18716;SDS011;9487;50.892;6.906;2023-03-03T06:30:28;60.57;;;35.40;;
18716;SDS011;9487;50.892;6.906;2023-03-03T06:32:54;56.37;;;34.20;;
18716;SDS011;9487;50.892;6.906;2023-03-03T06:35:21;56.50;;;34.10;;
18716;SDS011;9487;50.892;6.906;2023-03-03T06:37:48;59.40;;;35.47;;
18716;SDS011;9487;50.892;6.906;2023-03-03T06:40:15;60.57;;;36.73;;
18716;SDS011;9487;50.892;6.906;2023-03-03T06:42:42;69.93;;;40.60;;
18716;SDS011;9487;50.892;6.906;2023-03-03T06:45:11;62.93;;;37.87;;
18716;SDS011;9487;50.892;6.906;2023-03-03T06:47:38;58.73;;;34.93;;
18716;SDS011;9487;50.892;6.906;2023-03-03T06:50:05;62.80;;;35.90;;
18716;SDS011;9487;50.892;6.906;2023-03-03T06:52:33;64.53;;;37.17;;
18716;SDS011;9487;50.892;6.906;2023-03-03T06:55:01;64.77;;;37.73;;
18716;SDS011;9487;50.892;6.906;2023-03-03T06:57:36;67.23;;;39.30;;
18716;SDS011;9487;50.892;6.906;2023-03-03T07:00:11;67.87;;;41.07;;
18716;SDS011;9487;50.892;6.906;2023-03-03T07:02:41;63.70;;;37.73;;
18716;SDS011;9487;50.892;6.906;2023-03-03T07:05:09;75.27;;;41.30;;
18716;SDS011;9487;50.892;6.906;2023-03-03T07:07:39;70.17;;;40.67;;
18716;SDS011;9487;50.892;6.906;2023-03-03T07:10:06;76.83;;;42.33;;
18716;SDS011;9487;50.892;6.906;2023-03-03T07:12:41;68.97;;;39.97;;
18716;SDS011;9487;50.892;6.906;2023-03-03T07:15:14;76.27;;;43.27;;
18716;SDS011;9487;50.892;6.906;2023-03-03T07:17:43;70.80;;;41.93;;
18716;SDS011;9487;50.892;6.906;2023-03-03T07:20:14;70.33;;;40.60;;
18716;SDS011;9487;50.892;6.906;2023-03-03T07:22:44;76.33;;;43.13;;
18716;SDS011;9487;50.892;6.906;2023-03-03T07:25:17;75.93;;;42.30;;
18716;SDS011;9487;50.892;6.906;2023-03-03T07:27:46;74.23;;;40.57;;
18716;SDS011;9487;50.892;6.906;2023-03-03T07:30:20;68.53;;;41.13;;
18716;SDS011;9487;50.892;6.906;2023-03-03T07:32:51;75.77;;;42.63;;
18716;SDS011;9487;50.892;6.906;2023-03-03T07:35:27;72.37;;;47.73;;
18716;SDS011;9487;50.892;6.906;2023-03-03T07:38:02;68.57;;;40.33;;
18716;SDS011;9487;50.892;6.906;2023-03-03T07:40:45;65.00;;;39.90;;
18716;SDS011;9487;50.892;6.906;2023-03-03T07:46:02;69.27;;;41.30;;
18716;SDS011;9487;50.892;6.906;2023-03-03T07:48:44;84.00;;;40.47;;
18716;SDS011;9487;50.892;6.906;2023-03-03T07:51:12;68.67;;;41.90;;
18716;SDS011;9487;50.892;6.906;2023-03-03T07:53:44;65.63;;;38.90;;
18716;SDS011;9487;50.892;6.906;2023-03-03T07:56:15;66.57;;;40.23;;
18716;SDS011;9487;50.892;6.906;2023-03-03T07:58:50;62.70;;;39.37;;
18716;SDS011;9487;50.892;6.906;2023-03-03T08:04:12;62.77;;;36.57;;
18716;SDS011;9487;50.892;6.906;2023-03-03T08:06:47;66.80;;;38.97;;
18716;SDS011;9487;50.892;6.906;2023-03-03T08:12:23;68.50;;;40.73;;
18716;SDS011;9487;50.892;6.906;2023-03-03T08:14:56;63.50;;;38.70;;
18716;SDS011;9487;50.892;6.906;2023-03-03T08:17:30;70.07;;;39.23;;
18716;SDS011;9487;50.892;6.906;2023-03-03T08:20:01;60.17;;;35.60;;
18716;SDS011;9487;50.892;6.906;2023-03-03T08:22:49;63.00;;;37.97;;
18716;SDS011;9487;50.892;6.906;2023-03-03T08:25:16;58.97;;;36.43;;
18716;SDS011;9487;50.892;6.906;2023-03-03T08:27:42;61.40;;;37.67;;
18716;SDS011;9487;50.892;6.906;2023-03-03T08:30:10;63.43;;;38.63;;
18716;SDS011;9487;50.892;6.906;2023-03-03T08:32:38;62.37;;;37.07;;
18716;SDS011;9487;50.892;6.906;2023-03-03T08:35:05;62.57;;;36.67;;
18716;SDS011;9487;50.892;6.906;2023-03-03T08:37:32;55.97;;;35.63;;
18716;SDS011;9487;50.892;6.906;2023-03-03T08:40:00;62.53;;;36.87;;
18716;SDS011;9487;50.892;6.906;2023-03-03T08:42:27;62.57;;;38.60;;
18716;SDS011;9487;50.892;6.906;2023-03-03T08:44:54;58.87;;;36.93;;
18716;SDS011;9487;50.892;6.906;2023-03-03T08:47:21;61.03;;;36.93;;
18716;SDS011;9487;50.892;6.906;2023-03-03T08:49:49;61.57;;;37.73;;
18716;SDS011;9487;50.892;6.906;2023-03-03T08:52:16;62.87;;;39.03;;
18716;SDS011;9487;50.892;6.906;2023-03-03T08:54:43;65.80;;;39.57;;
18716;SDS011;9487;50.892;6.906;2023-03-03T08:57:09;60.37;;;35.17;;
18716;SDS011;9487;50.892;6.906;2023-03-03T08:59:36;61.70;;;37.47;;
18716;SDS011;9487;50.892;6.906;2023-03-03T09:02:03;58.17;;;35.67;;
18716;SDS011;9487;50.892;6.906;2023-03-03T09:04:30;62.73;;;36.80;;
18716;SDS011;9487;50.892;6.906;2023-03-03T09:06:58;56.97;;;34.27;;
18716;SDS011;9487;50.892;6.906;2023-03-03T09:09:25;58.53;;;34.67;;
18716;SDS011;9487;50.892;6.906;2023-03-03T09:11:52;54.13;;;31.20;;
18716;SDS011;9487;50.892;6.906;2023-03-03T09:14:23;54.27;;;31.27;;
18716;SDS011;9487;50.892;6.906;2023-03-03T09:16:54;55.53;;;33.77;;
18716;SDS011;9487;50.892;6.906;2023-03-03T09:19:22;59.33;;;35.37;;
18716;SDS011;9487;50.892;6.906;2023-03-03T09:21:52;53.30;;;33.40;;
18716;SDS011;9487;50.892;6.906;2023-03-03T09:24:25;59.27;;;35.30;;
18716;SDS011;9487;50.892;6.906;2023-03-03T09:26:54;55.27;;;33.90;;
18716;SDS011;9487;50.892;6.906;2023-03-03T09:29:23;48.43;;;27.47;;
18716;SDS011;9487;50.892;6.906;2023-03-03T09:31:52;49.73;;;29.93;;
18716;SDS011;9487;50.892;6.906;2023-03-03T09:34:22;48.47;;;30.47;;
18716;SDS011;9487;50.892;6.906;2023-03-03T09:36:50;46.03;;;27.70;;
18716;SDS011;9487;50.892;6.906;2023-03-03T09:39:18;43.73;;;26.93;;
18716;SDS011;9487;50.892;6.906;2023-03-03T09:41:54;46.07;;;26.83;;
18716;SDS011;9487;50.892;6.906;2023-03-03T09:44:50;46.63;;;26.73;;
18716;SDS011;9487;50.892;6.906;2023-03-03T09:47:33;45.27;;;26.90;;
18716;SDS011;9487;50.892;6.906;2023-03-03T09:50:09;42.80;;;27.57;;
18716;SDS011;9487;50.892;6.906;2023-03-03T09:52:50;43.57;;;25.43;;
18716;SDS011;9487;50.892;6.906;2023-03-03T09:55:25;43.63;;;24.60;;
18716;SDS011;9487;50.892;6.906;2023-03-03T09:58:07;48.03;;;27.50;;
18716;SDS011;9487;50.892;6.906;2023-03-03T10:00:52;45.33;;;26.20;;
18716;SDS011;9487;50.892;6.906;2023-03-03T10:03:35;43.53;;;26.83;;
18716;SDS011;9487;50.892;6.906;2023-03-03T10:06:12;48.13;;;27.07;;
18716;SDS011;9487;50.892;6.906;2023-03-03T10:08:50;47.83;;;26.67;;
18716;SDS011;9487;50.892;6.906;2023-03-03T10:11:25;46.73;;;26.87;;
18716;SDS011;9487;50.892;6.906;2023-03-03T10:14:02;41.10;;;26.57;;
18716;SDS011;9487;50.892;6.906;2023-03-03T10:16:55;45.00;;;25.50;;
18716;SDS011;9487;50.892;6.906;2023-03-03T10:19:36;44.93;;;25.50;;
18716;SDS011;9487;50.892;6.906;2023-03-03T10:22:15;42.43;;;24.27;;
18716;SDS011;9487;50.892;6.906;2023-03-03T10:24:46;46.20;;;27.30;;
18716;SDS011;9487;50.892;6.906;2023-03-03T10:27:35;40.77;;;24.93;;
18716;SDS011;9487;50.892;6.906;2023-03-03T10:30:15;40.47;;;24.47;;
18716;SDS011;9487;50.892;6.906;2023-03-03T10:32:47;47.37;;;27.43;;
18716;SDS011;9487;50.892;6.906;2023-03-03T10:35:21;44.10;;;27.13;;
18716;SDS011;9487;50.892;6.906;2023-03-03T10:38:06;47.53;;;25.90;;
18716;SDS011;9487;50.892;6.906;2023-03-03T10:40:55;41.03;;;23.43;;
18716;SDS011;9487;50.892;6.906;2023-03-03T10:43:47;40.40;;;22.90;;
18716;SDS011;9487;50.892;6.906;2023-03-03T10:46:35;40.37;;;23.00;;
18716;SDS011;9487;50.892;6.906;2023-03-03T10:49:16;42.87;;;23.73;;
18716;SDS011;9487;50.892;6.906;2023-03-03T10:52:04;44.20;;;24.97;;
18716;SDS011;9487;50.892;6.906;2023-03-03T10:54:52;41.13;;;22.83;;
18716;SDS011;9487;50.892;6.906;2023-03-03T10:57:27;41.27;;;23.37;;
18716;SDS011;9487;50.892;6.906;2023-03-03T11:00:07;38.90;;;24.13;;
18716;SDS011;9487;50.892;6.906;2023-03-03T11:02:49;38.30;;;21.77;;
18716;SDS011;9487;50.892;6.906;2023-03-03T11:05:34;35.73;;;21.67;;
18716;SDS011;9487;50.892;6.906;2023-03-03T11:08:08;41.93;;;24.57;;
18716;SDS011;9487;50.892;6.906;2023-03-03T11:10:44;40.20;;;24.20;;
18716;SDS011;9487;50.892;6.906;2023-03-03T11:13:20;39.30;;;22.80;;
18716;SDS011;9487;50.892;6.906;2023-03-03T11:15:59;42.40;;;23.27;;
18716;SDS011;9487;50.892;6.906;2023-03-03T11:18:44;41.33;;;23.30;;
18716;SDS011;9487;50.892;6.906;2023-03-03T11:21:27;39.53;;;23.07;;
18716;SDS011;9487;50.892;6.906;2023-03-03T11:24:11;40.07;;;22.90;;
18716;SDS011;9487;50.892;6.906;2023-03-03T11:26:57;41.87;;;24.20;;
18716;SDS011;9487;50.892;6.906;2023-03-03T11:29:48;45.90;;;25.90;;
18716;SDS011;9487;50.892;6.906;2023-03-03T11:32:26;43.83;;;27.17;;
18716;SDS011;9487;50.892;6.906;2023-03-03T11:35:12;46.23;;;28.20;;
18716;SDS011;9487;50.892;6.906;2023-03-03T11:37:52;50.80;;;30.33;;
18716;SDS011;9487;50.892;6.906;2023-03-03T11:40:26;51.00;;;29.57;;
18716;SDS011;9487;50.892;6.906;2023-03-03T11:43:00;49.37;;;28.73;;
18716;SDS011;9487;50.892;6.906;2023-03-03T11:45:36;47.53;;;29.80;;
18716;SDS011;9487;50.892;6.906;2023-03-03T11:48:10;51.03;;;28.93;;
18716;SDS011;9487;50.892;6.906;2023-03-03T11:50:44;47.73;;;28.53;;
18716;SDS011;9487;50.892;6.906;2023-03-03T11:53:33;49.33;;;30.53;;
18716;SDS011;9487;50.892;6.906;2023-03-03T11:56:13;49.93;;;28.97;;
18716;SDS011;9487;50.892;6.906;2023-03-03T11:58:49;47.43;;;27.87;;
18716;SDS011;9487;50.892;6.906;2023-03-03T12:01:25;44.77;;;27.10;;
18716;SDS011;9487;50.892;6.906;2023-03-03T12:03:59;47.37;;;28.40;;
18716;SDS011;9487;50.892;6.906;2023-03-03T12:06:32;41.60;;;24.47;;
18716;SDS011;9487;50.892;6.906;2023-03-03T12:09:12;40.67;;;24.60;;
18716;SDS011;9487;50.892;6.906;2023-03-03T12:11:52;41.73;;;24.00;;
18716;SDS011;9487;50.892;6.906;2023-03-03T12:14:31;41.63;;;23.77;;
18716;SDS011;9487;50.892;6.906;2023-03-03T12:17:12;44.40;;;27.03;;
18716;SDS011;9487;50.892;6.906;2023-03-03T12:19:51;43.13;;;26.27;;
18716;SDS011;9487;50.892;6.906;2023-03-03T12:22:27;40.90;;;24.20;;
18716;SDS011;9487;50.892;6.906;2023-03-03T12:27:48;41.20;;;24.20;;
18716;SDS011;9487;50.892;6.906;2023-03-03T12:30:21;40.47;;;25.00;;
18716;SDS011;9487;50.892;6.906;2023-03-03T12:32:58;42.57;;;25.87;;
18716;SDS011;9487;50.892;6.906;2023-03-03T12:35:38;45.23;;;25.97;;
18716;SDS011;9487;50.892;6.906;2023-03-03T12:38:16;40.13;;;24.70;;
18716;SDS011;9487;50.892;6.906;2023-03-03T12:40:56;40.67;;;23.47;;
18716;SDS011;9487;50.892;6.906;2023-03-03T12:43:32;36.27;;;21.00;;
18716;SDS011;9487;50.892;6.906;2023-03-03T12:46:18;40.80;;;22.73;;
18716;SDS011;9487;50.892;6.906;2023-03-03T12:48:49;41.83;;;23.43;;
18716;SDS011;9487;50.892;6.906;2023-03-03T12:51:19;47.90;;;25.93;;
18716;SDS011;9487;50.892;6.906;2023-03-03T12:54:07;48.10;;;24.53;;
18716;SDS011;9487;50.892;6.906;2023-03-03T12:56:45;47.83;;;25.10;;
18716;SDS011;9487;50.892;6.906;2023-03-03T12:59:16;45.63;;;25.73;;
18716;SDS011;9487;50.892;6.906;2023-03-03T13:01:59;44.23;;;24.70;;
18716;SDS011;9487;50.892;6.906;2023-03-03T13:04:40;42.50;;;25.37;;
18716;SDS011;9487;50.892;6.906;2023-03-03T13:07:14;37.43;;;21.73;;
18716;SDS011;9487;50.892;6.906;2023-03-03T13:09:54;39.43;;;23.30;;
18716;SDS011;9487;50.892;6.906;2023-03-03T13:12:33;37.03;;;21.43;;
18716;SDS011;9487;50.892;6.906;2023-03-03T13:15:09;45.67;;;24.03;;
18716;SDS011;9487;50.892;6.906;2023-03-03T13:17:42;45.13;;;25.77;;
18716;SDS011;9487;50.892;6.906;2023-03-03T13:20:18;45.03;;;24.67;;
18716;SDS011;9487;50.892;6.906;2023-03-03T13:22:50;39.87;;;23.97;;
18716;SDS011;9487;50.892;6.906;2023-03-03T13:25:36;41.30;;;23.37;;
18716;SDS011;9487;50.892;6.906;2023-03-03T13:28:13;40.87;;;25.17;;
18716;SDS011;9487;50.892;6.906;2023-03-03T13:30:51;41.03;;;24.00;;
18716;SDS011;9487;50.892;6.906;2023-03-03T13:33:24;42.80;;;24.70;;
18716;SDS011;9487;50.892;6.906;2023-03-03T13:35:53;42.80;;;24.70;;
18716;SDS011;9487;50.892;6.906;2023-03-03T13:38:23;45.90;;;25.20;;
18716;SDS011;9487;50.892;6.906;2023-03-03T13:40:56;41.07;;;23.97;;
18716;SDS011;9487;50.892;6.906;2023-03-03T13:43:29;43.50;;;25.13;;
18716;SDS011;9487;50.892;6.906;2023-03-03T13:46:03;47.50;;;26.67;;
18716;SDS011;9487;50.892;6.906;2023-03-03T13:48:39;50.50;;;26.80;;
18716;SDS011;9487;50.892;6.906;2023-03-03T13:51:22;50.73;;;26.90;;
18716;SDS011;9487;50.892;6.906;2023-03-03T13:54:00;50.67;;;27.00;;
18716;SDS011;9487;50.892;6.906;2023-03-03T13:56:39;48.63;;;27.43;;
18716;SDS011;9487;50.892;6.906;2023-03-03T13:59:22;59.93;;;30.67;;
18716;SDS011;9487;50.892;6.906;2023-03-03T14:01:56;54.17;;;28.17;;
18716;SDS011;9487;50.892;6.906;2023-03-03T14:04:35;53.70;;;27.00;;
18716;SDS011;9487;50.892;6.906;2023-03-03T14:07:12;58.07;;;29.97;;
18716;SDS011;9487;50.892;6.906;2023-03-03T14:09:46;48.60;;;27.33;;
18716;SDS011;9487;50.892;6.906;2023-03-03T14:12:23;54.30;;;29.10;;
18716;SDS011;9487;50.892;6.906;2023-03-03T14:14:56;61.43;;;31.40;;
18716;SDS011;9487;50.892;6.906;2023-03-03T14:17:31;59.30;;;31.80;;
18716;SDS011;9487;50.892;6.906;2023-03-03T14:20:11;63.20;;;32.73;;
18716;SDS011;9487;50.892;6.906;2023-03-03T14:22:44;60.70;;;31.17;;
18716;SDS011;9487;50.892;6.906;2023-03-03T14:25:15;57.67;;;31.20;;
18716;SDS011;9487;50.892;6.906;2023-03-03T14:27:57;62.07;;;32.73;;
18716;SDS011;9487;50.892;6.906;2023-03-03T14:30:27;60.60;;;30.77;;
18716;SDS011;9487;50.892;6.906;2023-03-03T14:33:00;62.90;;;33.17;;
18716;SDS011;9487;50.892;6.906;2023-03-03T14:35:31;63.10;;;33.67;;
18716;SDS011;9487;50.892;6.906;2023-03-03T14:38:02;63.43;;;30.77;;
18716;SDS011;9487;50.892;6.906;2023-03-03T14:40:37;63.53;;;31.10;;
18716;SDS011;9487;50.892;6.906;2023-03-03T14:43:19;62.73;;;32.73;;
18716;SDS011;9487;50.892;6.906;2023-03-03T14:45:48;61.97;;;31.27;;
18716;SDS011;9487;50.892;6.906;2023-03-03T14:48:16;59.17;;;31.37;;
18716;SDS011;9487;50.892;6.906;2023-03-03T14:50:47;67.17;;;34.63;;
18716;SDS011;9487;50.892;6.906;2023-03-03T14:53:19;59.57;;;30.57;;
18716;SDS011;9487;50.892;6.906;2023-03-03T14:55:49;60.33;;;31.10;;
18716;SDS011;9487;50.892;6.906;2023-03-03T14:58:29;60.67;;;31.03;;
18716;SDS011;9487;50.892;6.906;2023-03-03T15:01:13;59.70;;;30.73;;
18716;SDS011;9487;50.892;6.906;2023-03-03T15:03:46;59.67;;;29.90;;
18716;SDS011;9487;50.892;6.906;2023-03-03T15:06:35;57.17;;;29.73;;
18716;SDS011;9487;50.892;6.906;2023-03-03T15:11:59;60.07;;;29.93;;
18716;SDS011;9487;50.892;6.906;2023-03-03T15:14:31;62.30;;;29.77;;